Time;durP1;ratioP1;P1;durP2;ratioP2;P2;SDS_P1;SDS_P2;PMS_P1;PMS_P2;Temp;Humidity;BMP_temperature;BMP_pressure;BME280_temperature;BME280_humidity;BME280_pressure;Samples;Min_cycle;Max_cycle;Signal;HPM_P1;HPM_P2
2022/01/24 00:01:43;;;;;;;;;;;12.90;61.60;;;;;;4995216;28;20004;-89
2022/01/24 00:04:09;;;;;;;;;;;12.80;61.70;;;;;;4994505;28;19910;-88
2022/01/24 00:06:34;;;;;;;;;;;12.90;61.80;;;;;;4994820;28;20342;-89
2022/01/24 00:09:00;;;;;;;;;;;12.90;61.90;;;;;;4996829;28;19918;-89
2022/01/24 00:11:37;;;;;;;;;;;12.90;61.90;;;;;;4995529;28;19921;-89
2022/01/24 00:27:15;;;;;;;;;;;12.90;62.10;;;;;;5014394;28;19935;-89
2022/01/24 00:29:40;;;;;;;;;;;12.90;62.10;;;;;;4996235;28;19989;-89
2022/01/24 00:32:06;;;;;;;;;;;12.90;61.90;;;;;;4983613;28;19921;-90
2022/01/24 00:34:32;;;;;;;;;;;12.90;61.90;;;;;;5012809;28;19918;-89
2022/01/24 00:36:57;;;;;;;;;;;12.90;61.90;;;;;;5033582;28;19914;-89
2022/01/24 00:39:23;;;;;;;;;;;12.90;61.90;;;;;;4996219;28;19968;-90
2022/01/24 00:42:06;;;;;;;;;;;12.90;61.90;;;;;;5004825;28;19909;-89
2022/01/24 00:47:16;;;;;;;;;;;12.90;61.70;;;;;;5014132;28;20008;-89
2022/01/24 00:54:54;;;;;;;;;;;12.90;62.00;;;;;;4995735;28;19929;-89
2022/01/24 00:57:20;;;;;;;;;;;12.90;62.10;;;;;;5000183;28;19914;-89
2022/01/24 00:59:46;;;;;;;;;;;12.90;62.00;;;;;;4996024;28;19918;-89
2022/01/24 01:02:11;;;;;;;;;;;12.90;61.90;;;;;;4977244;28;19921;-90
2022/01/24 01:07:11;;;;;;;;;;;12.90;62.00;;;;;;4995555;28;19914;-90
2022/01/24 01:18:14;;;;;;;;;;;12.80;62.20;;;;;;5013996;28;19963;-89
2022/01/24 01:21:05;;;;;;;;;;;12.80;62.30;;;;;;5013047;28;19918;-88
2022/01/24 01:23:29;;;;;;;;;;;12.80;62.30;;;;;;5009089;28;19960;-89
2022/01/24 01:25:56;;;;;;;;;;;12.80;61.90;;;;;;5003058;28;19918;-88
2022/01/24 01:28:23;;;;;;;;;;;12.80;61.80;;;;;;4992359;28;19925;-88
2022/01/24 01:30:52;;;;;;;;;;;12.80;62.00;;;;;;4996217;28;19917;-88
2022/01/24 01:33:33;;;;;;;;;;;12.80;62.10;;;;;;4994564;28;19918;-89
2022/01/24 01:36:12;;;;;;;;;;;12.80;62.10;;;;;;4999318;28;19918;-89
2022/01/24 01:52:28;;;;;;;;;;;12.70;62.10;;;;;;4980040;28;19932;-89
2022/01/24 01:55:24;;;;;;;;;;;12.80;62.20;;;;;;4986918;28;19928;-89
2022/01/24 01:57:42;;;;;;;;;;;12.80;62.00;;;;;;5008037;28;19914;-89
2022/01/24 02:00:08;;;;;;;;;;;12.80;61.80;;;;;;4982350;28;19918;-90
2022/01/24 02:02:33;;;;;;;;;;;12.80;61.70;;;;;;4987068;28;20284;-90
2022/01/24 02:04:59;;;;;;;;;;;12.80;61.70;;;;;;4974597;28;19922;-89
2022/01/24 02:07:24;;;;;;;;;;;12.80;61.80;;;;;;4997285;28;20343;-89
2022/01/24 02:09:50;;;;;;;;;;;12.80;61.80;;;;;;5009607;28;20000;-89
2022/01/24 02:12:18;;;;;;;;;;;12.70;61.70;;;;;;4993241;28;20361;-89
2022/01/24 02:14:53;;;;;;;;;;;12.70;61.60;;;;;;4974809;28;20281;-89
2022/01/24 02:17:22;;;;;;;;;;;12.70;61.50;;;;;;5001663;28;19914;-89
2022/01/24 02:20:05;;;;;;;;;;;12.70;61.80;;;;;;5059204;28;19929;-89
2022/01/24 02:22:51;;;;;;;;;;;12.70;61.90;;;;;;4991945;28;20009;-89
2022/01/24 02:25:26;;;;;;;;;;;12.70;62.00;;;;;;4992909;28;19964;-89
2022/01/24 02:27:58;;;;;;;;;;;12.70;62.20;;;;;;5008560;28;19996;-89
2022/01/24 02:33:01;;;;;;;;;;;12.80;62.20;;;;;;5006385;28;19917;-90
2022/01/24 02:35:27;;;;;;;;;;;12.70;62.20;;;;;;5001004;28;20413;-89
2022/01/24 02:37:53;;;;;;;;;;;12.80;62.20;;;;;;4993279;28;20194;-90
2022/01/24 02:40:20;;;;;;;;;;;12.80;62.20;;;;;;5001027;28;20036;-90
2022/01/24 02:48:28;;;;;;;;;;;12.80;62.10;;;;;;5008789;28;19984;-89
2022/01/24 02:53:23;;;;;;;;;;;12.90;62.10;;;;;;4999314;28;19929;-90
2022/01/24 02:55:48;;;;;;;;;;;12.90;62.20;;;;;;4979862;28;20210;-90
2022/01/24 02:58:16;;;;;;;;;;;12.90;62.10;;;;;;4991195;28;19982;-90
2022/01/24 03:00:42;;;;;;;;;;;12.90;62.00;;;;;;4993533;28;19917;-90
2022/01/24 03:03:08;;;;;;;;;;;13.00;62.00;;;;;;4983243;28;19996;-90
2022/01/24 03:05:34;;;;;;;;;;;13.00;62.00;;;;;;4985576;28;20373;-90
2022/01/24 03:07:59;;;;;;;;;;;12.90;61.80;;;;;;4991972;28;20381;-90
2022/01/24 03:10:36;;;;;;;;;;;12.90;61.70;;;;;;4996742;28;19918;-89
2022/01/24 03:15:37;;;;;;;;;;;12.90;61.80;;;;;;4991207;28;19918;-89
2022/01/24 03:18:02;;;;;;;;;;;12.80;61.90;;;;;;5002410;28;19914;-89
2022/01/24 03:20:28;;;;;;;;;;;12.80;61.90;;;;;;4973126;28;20362;-89
2022/01/24 03:22:53;;;;;;;;;;;12.90;62.00;;;;;;4978282;28;20016;-89
2022/01/24 03:25:18;;;;;;;;;;;12.90;62.00;;;;;;4993056;28;20296;-90
2022/01/24 03:27:44;;;;;;;;;;;12.90;62.00;;;;;;4993859;28;20277;-89
2022/01/24 03:30:10;;;;;;;;;;;12.90;61.90;;;;;;4981765;28;20285;-89
2022/01/24 03:32:35;;;;;;;;;;;13.00;61.80;;;;;;4986497;28;19943;-89
2022/01/24 03:35:01;;;;;;;;;;;12.90;61.80;;;;;;4988286;28;19962;-89
2022/01/24 03:37:26;;;;;;;;;;;12.90;61.80;;;;;;5009064;28;20273;-89
2022/01/24 03:39:51;;;;;;;;;;;12.90;61.80;;;;;;4986245;28;19924;-89
2022/01/24 03:42:17;;;;;;;;;;;12.90;61.90;;;;;;4998609;28;19914;-89
2022/01/24 03:44:45;;;;;;;;;;;12.80;61.80;;;;;;4986223;28;19924;-89
2022/01/24 03:47:30;;;;;;;;;;;12.80;61.90;;;;;;4971775;28;20292;-89
2022/01/24 03:49:57;;;;;;;;;;;12.80;61.80;;;;;;4988954;28;19918;-90
2022/01/24 03:52:22;;;;;;;;;;;12.80;61.70;;;;;;4975460;28;20424;-89
2022/01/24 03:54:49;;;;;;;;;;;12.80;61.80;;;;;;4992504;28;19925;-89
2022/01/24 03:57:16;;;;;;;;;;;12.80;61.90;;;;;;4992750;28;20272;-90
2022/01/24 03:59:41;;;;;;;;;;;12.80;61.90;;;;;;4988581;28;19928;-89
2022/01/24 04:02:07;;;;;;;;;;;12.80;61.80;;;;;;4993218;28;19996;-90
2022/01/24 04:04:33;;;;;;;;;;;12.70;61.50;;;;;;4981344;28;19918;-89
2022/01/24 04:06:58;;;;;;;;;;;12.70;61.60;;;;;;4973771;28;19964;-89
2022/01/24 04:09:24;;;;;;;;;;;12.70;61.80;;;;;;4978463;28;20020;-89
2022/01/24 04:11:55;;;;;;;;;;;12.70;61.90;;;;;;4991053;28;19914;-90
2022/01/24 04:17:06;;;;;;;;;;;12.70;62.00;;;;;;4992745;28;19928;-90
2022/01/24 04:22:13;;;;;;;;;;;12.70;62.00;;;;;;4991103;28;20427;-90
2022/01/24 04:24:40;;;;;;;;;;;12.70;61.80;;;;;;4991144;28;19918;-89
2022/01/24 04:27:05;;;;;;;;;;;12.70;61.70;;;;;;4982119;28;19910;-89
2022/01/24 04:29:31;;;;;;;;;;;12.70;61.80;;;;;;4993738;28;19925;-89
2022/01/24 04:31:56;;;;;;;;;;;12.70;61.90;;;;;;4975955;28;19921;-89
2022/01/24 04:34:22;;;;;;;;;;;12.70;61.90;;;;;;5001998;28;19921;-89
2022/01/24 04:36:47;;;;;;;;;;;12.70;61.80;;;;;;4997783;28;19921;-90
2022/01/24 04:39:13;;;;;;;;;;;12.70;61.60;;;;;;4994490;28;20041;-89
2022/01/24 04:41:45;;;;;;;;;;;12.70;61.80;;;;;;5062497;28;19910;-89
2022/01/24 04:47:02;;;;;;;;;;;12.70;61.70;;;;;;5001928;28;19960;-88
2022/01/24 04:52:18;;;;;;;;;;;12.60;61.70;;;;;;5000759;28;20292;-89
2022/01/24 04:54:44;;;;;;;;;;;12.60;61.50;;;;;;5003657;28;20362;-89
2022/01/24 04:57:12;;;;;;;;;;;12.60;61.70;;;;;;4984824;28;19974;-89
2022/01/24 04:59:38;;;;;;;;;;;12.60;61.60;;;;;;5011315;28;19924;-89
2022/01/24 05:02:04;;;;;;;;;;;12.60;61.90;;;;;;4993909;28;19920;-89
2022/01/24 05:04:29;;;;;;;;;;;12.50;61.60;;;;;;5015036;28;19901;-89
2022/01/24 05:06:55;;;;;;;;;;;12.50;61.30;;;;;;5013909;28;19996;-89
2022/01/24 05:09:21;;;;;;;;;;;12.50;61.50;;;;;;4994476;28;19914;-89
2022/01/24 05:25:17;;;;;;;;;;;12.40;61.40;;;;;;4996374;28;19925;-89
2022/01/24 05:27:43;;;;;;;;;;;12.40;61.30;;;;;;4996198;28;19959;-90
2022/01/24 05:30:11;;;;;;;;;;;12.50;61.60;;;;;;4996181;28;19922;-89
2022/01/24 05:32:36;;;;;;;;;;;12.50;61.50;;;;;;4991557;28;19921;-88
2022/01/24 05:35:02;;;;;;;;;;;12.50;61.50;;;;;;4997436;28;19918;-89
2022/01/24 05:37:27;;;;;;;;;;;12.50;61.80;;;;;;4977377;28;19924;-89
2022/01/24 05:39:53;;;;;;;;;;;12.50;61.60;;;;;;5006106;28;19924;-89
2022/01/24 05:42:21;;;;;;;;;;;12.50;61.30;;;;;;4997781;28;19916;-87
2022/01/24 05:44:50;;;;;;;;;;;12.50;61.50;;;;;;4997039;28;19972;-88
2022/01/24 05:47:16;;;;;;;;;;;12.50;61.20;;;;;;4996832;28;20226;-88
2022/01/24 05:49:42;;;;;;;;;;;12.50;61.30;;;;;;5002922;28;19975;-87
2022/01/24 05:52:09;;;;;;;;;;;12.50;61.30;;;;;;5035012;28;19965;-88
2022/01/24 05:54:35;;;;;;;;;;;12.50;61.10;;;;;;5001289;28;19925;-88
2022/01/24 05:57:01;;;;;;;;;;;12.40;61.00;;;;;;4990629;28;20306;-89
2022/01/24 05:59:26;;;;;;;;;;;12.40;61.30;;;;;;4998350;28;19918;-89
2022/01/24 06:01:52;;;;;;;;;;;12.50;61.40;;;;;;4985360;28;19936;-92
2022/01/24 06:04:17;;;;;;;;;;;12.40;61.40;;;;;;4978522;28;19914;-90
2022/01/24 06:06:43;;;;;;;;;;;12.40;61.60;;;;;;5001198;28;19912;-89
2022/01/24 06:09:08;;;;;;;;;;;12.50;61.30;;;;;;5024158;28;19936;-90
2022/01/24 06:11:34;;;;;;;;;;;12.40;60.90;;;;;;5014323;28;19917;-89
2022/01/24 06:14:02;;;;;;;;;;;12.40;61.40;;;;;;5007619;28;19939;-89
2022/01/24 06:16:27;;;;;;;;;;;12.50;61.10;;;;;;5015472;28;20376;-89
2022/01/24 06:18:53;;;;;;;;;;;12.40;60.90;;;;;;5034200;28;20000;-89
2022/01/24 06:21:18;;;;;;;;;;;12.50;61.00;;;;;;5005129;28;19920;-91
2022/01/24 06:23:44;;;;;;;;;;;12.40;61.40;;;;;;5007371;28;19917;-89
2022/01/24 06:26:10;;;;;;;;;;;12.40;60.80;;;;;;5038550;28;20297;-90
2022/01/24 06:28:36;;;;;;;;;;;12.40;61.00;;;;;;5039564;28;20369;-90
2022/01/24 06:31:01;;;;;;;;;;;12.40;61.20;;;;;;5027049;28;19908;-90
2022/01/24 06:33:27;;;;;;;;;;;12.40;60.90;;;;;;5014399;28;19926;-90
2022/01/24 06:35:52;;;;;;;;;;;12.40;60.80;;;;;;5023250;28;19951;-90
2022/01/24 06:38:18;;;;;;;;;;;12.30;60.80;;;;;;5019041;28;19918;-90
2022/01/24 06:40:43;;;;;;;;;;;12.30;60.90;;;;;;5009851;28;19914;-89
2022/01/24 06:43:09;;;;;;;;;;;12.40;61.30;;;;;;5023653;28;19917;-89
2022/01/24 06:45:34;;;;;;;;;;;12.40;61.30;;;;;;5018735;28;19910;-89
2022/01/24 06:48:00;;;;;;;;;;;12.40;61.40;;;;;;5011122;28;19949;-89
2022/01/24 06:50:33;;;;;;;;;;;12.40;61.70;;;;;;5022507;28;19918;-89
2022/01/24 06:53:02;;;;;;;;;;;12.40;61.00;;;;;;4981543;28;19914;-90
2022/01/24 06:55:28;;;;;;;;;;;12.40;61.00;;;;;;4990223;28;19922;-90
2022/01/24 06:57:53;;;;;;;;;;;12.40;61.20;;;;;;4977591;28;19943;-89
2022/01/24 07:00:25;;;;;;;;;;;12.40;61.10;;;;;;4991033;28;19918;-90
2022/01/24 07:02:51;;;;;;;;;;;12.40;60.90;;;;;;4979997;28;20361;-90
2022/01/24 07:05:17;;;;;;;;;;;12.40;61.40;;;;;;4995699;28;19921;-90
2022/01/24 07:07:43;;;;;;;;;;;12.40;61.00;;;;;;4988161;28;19918;-89
2022/01/24 07:10:08;;;;;;;;;;;12.50;61.40;;;;;;4993657;28;19910;-90
2022/01/24 07:12:34;;;;;;;;;;;12.50;61.50;;;;;;4990328;28;19921;-90
2022/01/24 07:15:06;;;;;;;;;;;12.50;60.80;;;;;;4994045;28;19920;-90
2022/01/24 07:17:56;;;;;;;;;;;12.50;61.00;;;;;;4998828;28;19926;-90
2022/01/24 07:20:17;;;;;;;;;;;12.50;61.30;;;;;;4991720;28;20373;-90
2022/01/24 07:22:43;;;;;;;;;;;12.50;61.20;;;;;;4988457;28;19924;-91
2022/01/24 07:25:09;;;;;;;;;;;12.50;60.80;;;;;;4991287;28;20702;-90
2022/01/24 07:27:34;;;;;;;;;;;12.50;60.80;;;;;;4982472;28;20431;-90
2022/01/24 07:30:01;;;;;;;;;;;12.40;60.80;;;;;;4991846;28;19971;-89
2022/01/24 07:32:28;;;;;;;;;;;12.40;60.70;;;;;;4980286;28;19976;-89
2022/01/24 07:34:54;;;;;;;;;;;12.40;61.20;;;;;;4984046;28;19918;-90
2022/01/24 07:37:21;;;;;;;;;;;12.40;60.70;;;;;;4979043;28;19969;-90
2022/01/24 07:39:47;;;;;;;;;;;12.40;60.80;;;;;;4993136;28;19918;-90
2022/01/24 07:42:26;;;;;;;;;;;12.40;60.70;;;;;;4971573;28;19918;-89
2022/01/24 07:44:52;;;;;;;;;;;12.40;60.70;;;;;;4998276;28;20369;-90
2022/01/24 07:47:17;;;;;;;;;;;12.40;60.80;;;;;;4977451;28;19924;-90
2022/01/24 07:49:43;;;;;;;;;;;12.40;60.90;;;;;;4975897;28;19932;-89
2022/01/24 07:52:08;;;;;;;;;;;12.40;60.50;;;;;;4992004;28;20012;-90
2022/01/24 07:54:34;;;;;;;;;;;12.40;60.60;;;;;;4978297;28;19929;-90
2022/01/24 07:56:59;;;;;;;;;;;12.30;60.70;;;;;;4987893;28;19921;-89
2022/01/24 07:59:25;;;;;;;;;;;12.30;60.80;;;;;;4976873;28;19962;-90
2022/01/24 08:01:51;;;;;;;;;;;12.30;60.60;;;;;;4981058;28;19922;-90
2022/01/24 08:04:16;;;;;;;;;;;12.30;60.70;;;;;;4979931;28;20345;-90
2022/01/24 08:06:43;;;;;;;;;;;12.40;61.10;;;;;;4980024;28;19922;-90
2022/01/24 08:09:09;;;;;;;;;;;12.40;61.20;;;;;;4983293;28;19920;-90
2022/01/24 08:11:35;;;;;;;;;;;12.40;61.50;;;;;;4993682;28;19926;-90
2022/01/24 08:14:01;;;;;;;;;;;12.50;61.20;;;;;;4993298;28;20281;-90
2022/01/24 08:16:26;;;;;;;;;;;12.50;61.20;;;;;;4984645;28;19921;-89
2022/01/24 08:18:52;;;;;;;;;;;12.50;61.50;;;;;;4983934;28;19951;-90
2022/01/24 08:21:18;;;;;;;;;;;12.50;60.70;;;;;;4984197;28;19970;-90
2022/01/24 08:23:44;;;;;;;;;;;12.50;60.50;;;;;;4982908;28;19914;-90
2022/01/24 08:26:09;;;;;;;;;;;12.50;61.10;;;;;;4985648;28;19925;-90
2022/01/24 08:28:36;;;;;;;;;;;12.60;61.30;;;;;;4978429;28;19920;-90
2022/01/24 08:31:02;;;;;;;;;;;12.60;61.50;;;;;;4986469;28;19928;-90
2022/01/24 08:33:27;;;;;;;;;;;12.60;61.00;;;;;;4977778;28;20005;-90
2022/01/24 08:35:53;;;;;;;;;;;12.60;60.70;;;;;;4984578;28;20356;-90
2022/01/24 08:38:19;;;;;;;;;;;12.60;60.60;;;;;;4981515;28;20278;-90
2022/01/24 08:40:47;;;;;;;;;;;12.60;61.10;;;;;;5044823;28;19971;-90
2022/01/24 08:43:13;;;;;;;;;;;12.60;61.30;;;;;;4988566;28;19925;-90
2022/01/24 08:48:24;;;;;;;;;;;12.70;60.50;;;;;;4992956;28;20033;-89
2022/01/24 08:50:51;;;;;;;;;;;12.60;60.40;;;;;;4982218;28;19917;-89
2022/01/24 08:53:17;;;;;;;;;;;12.60;61.00;;;;;;4983612;28;19914;-89
2022/01/24 08:55:42;;;;;;;;;;;12.60;60.60;;;;;;4987668;28;19929;-90
2022/01/24 08:58:13;;;;;;;;;;;12.60;60.60;;;;;;4993317;28;19922;-90
2022/01/24 09:00:38;;;;;;;;;;;12.60;61.30;;;;;;4975983;28;20090;-89
2022/01/24 09:03:05;;;;;;;;;;;12.70;61.50;;;;;;4993114;28;20008;-90
2022/01/24 09:05:34;;;;;;;;;;;12.70;61.60;;;;;;4982566;28;19928;-90
2022/01/24 09:08:00;;;;;;;;;;;12.70;61.40;;;;;;4978007;28;20374;-89
2022/01/24 09:10:25;;;;;;;;;;;12.80;61.30;;;;;;4996041;28;19941;-90
2022/01/24 09:12:51;;;;;;;;;;;12.80;61.00;;;;;;4978683;28;19929;-90
2022/01/24 09:15:17;;;;;;;;;;;12.70;60.30;;;;;;4976492;28;20004;-90
2022/01/24 09:17:43;;;;;;;;;;;12.70;61.00;;;;;;4980876;28;19922;-90
2022/01/24 09:20:10;;;;;;;;;;;12.70;61.50;;;;;;4992647;28;19920;-90
2022/01/24 09:22:36;;;;;;;;;;;12.80;61.00;;;;;;4979952;28;19955;-90
2022/01/24 09:25:02;;;;;;;;;;;12.80;61.00;;;;;;4992272;28;19918;-89
2022/01/24 09:27:30;;;;;;;;;;;12.80;60.50;;;;;;4983970;28;19925;-90
2022/01/24 09:29:55;;;;;;;;;;;12.80;61.10;;;;;;4991750;28;20277;-90
2022/01/24 09:32:21;;;;;;;;;;;12.90;61.30;;;;;;4991715;28;19917;-90
2022/01/24 09:34:47;;;;;;;;;;;12.90;61.50;;;;;;4981318;28;20383;-90
2022/01/24 09:37:12;;;;;;;;;;;12.90;61.60;;;;;;4984730;28;19914;-90
2022/01/24 09:39:38;;;;;;;;;;;13.00;61.50;;;;;;4979017;28;20337;-90
2022/01/24 09:42:04;;;;;;;;;;;13.10;61.10;;;;;;4983723;28;19918;-90
2022/01/24 09:44:30;;;;;;;;;;;13.00;60.10;;;;;;4995713;28;19924;-90
2022/01/24 09:46:55;;;;;;;;;;;13.00;60.00;;;;;;4991812;28;20020;-90
2022/01/24 09:49:21;;;;;;;;;;;12.90;60.70;;;;;;4988808;28;19922;-90
2022/01/24 09:51:46;;;;;;;;;;;12.90;61.10;;;;;;4979865;28;19914;-90
2022/01/24 09:54:12;;;;;;;;;;;13.00;61.40;;;;;;4977950;28;19988;-90
2022/01/24 09:56:38;;;;;;;;;;;13.10;61.70;;;;;;4981608;28;19921;-90
2022/01/24 09:59:04;;;;;;;;;;;13.10;61.80;;;;;;4977646;28;19925;-90
2022/01/24 10:01:30;;;;;;;;;;;13.20;60.50;;;;;;4990681;28;19922;-90
2022/01/24 10:04:06;;;;;;;;;;;13.20;60.70;;;;;;4984240;28;19917;-90
2022/01/24 10:06:50;;;;;;;;;;;13.20;61.20;;;;;;4987706;28;19913;-90
2022/01/24 10:09:16;;;;;;;;;;;13.20;61.60;;;;;;5009189;28;20337;-90
2022/01/24 10:11:59;;;;;;;;;;;13.20;61.00;;;;;;4993426;28;19928;-90
2022/01/24 10:17:29;;;;;;;;;;;13.30;61.30;;;;;;4992024;28;20265;-90
2022/01/24 10:19:55;;;;;;;;;;;13.30;61.40;;;;;;4982435;28;20458;-90
2022/01/24 10:22:23;;;;;;;;;;;13.30;61.40;;;;;;5020906;28;19942;-90
2022/01/24 10:24:51;;;;;;;;;;;13.40;60.70;;;;;;4983237;28;19918;-90
2022/01/24 10:27:30;;;;;;;;;;;13.40;60.00;;;;;;4984368;28;20364;-92
2022/01/24 10:29:56;;;;;;;;;;;13.30;60.50;;;;;;4983135;28;19922;-90
2022/01/24 10:32:28;;;;;;;;;;;13.30;59.90;;;;;;4980035;28;19929;-89
2022/01/24 10:34:54;;;;;;;;;;;13.30;60.00;;;;;;4980608;28;19961;-88
2022/01/24 10:37:23;;;;;;;;;;;13.30;60.40;;;;;;4991982;28;19914;-91
2022/01/24 10:39:59;;;;;;;;;;;13.30;59.90;;;;;;4982192;28;19918;-90
2022/01/24 10:42:52;;;;;;;;;;;13.30;60.40;;;;;;4990924;28;20293;-89
2022/01/24 10:45:20;;;;;;;;;;;13.30;59.50;;;;;;4978868;28;20373;-89
2022/01/24 10:47:49;;;;;;;;;;;13.20;60.10;;;;;;4978530;28;19922;-88
2022/01/24 10:50:27;;;;;;;;;;;13.30;60.80;;;;;;4979719;28;19963;-90
2022/01/24 10:52:52;;;;;;;;;;;13.30;60.70;;;;;;4979362;28;19973;-90
2022/01/24 10:55:24;;;;;;;;;;;13.40;60.80;;;;;;4993551;28;20422;-89
2022/01/24 10:57:56;;;;;;;;;;;13.40;60.50;;;;;;4981331;28;19975;-89
2022/01/24 11:00:26;;;;;;;;;;;13.40;60.60;;;;;;4979552;28;19945;-89
2022/01/24 11:02:53;;;;;;;;;;;13.40;60.30;;;;;;4996120;28;20486;-89
2022/01/24 11:05:23;;;;;;;;;;;13.40;61.10;;;;;;4979179;28;19925;-89
2022/01/24 11:07:48;;;;;;;;;;;13.50;61.20;;;;;;4982178;28;20009;-89
2022/01/24 11:10:14;;;;;;;;;;;13.60;60.80;;;;;;4980812;28;20005;-89
2022/01/24 11:12:40;;;;;;;;;;;13.50;60.20;;;;;;4988919;28;19926;-89
2022/01/24 11:15:05;;;;;;;;;;;13.50;60.80;;;;;;4986302;28;19940;-89
2022/01/24 11:17:31;;;;;;;;;;;13.60;61.00;;;;;;4982788;28;19914;-89
2022/01/24 11:20:01;;;;;;;;;;;13.60;60.70;;;;;;4979340;28;20001;-89
2022/01/24 11:22:29;;;;;;;;;;;13.60;60.20;;;;;;4983795;28;20300;-89
2022/01/24 11:25:00;;;;;;;;;;;13.60;60.00;;;;;;4988789;28;19925;-90
2022/01/24 11:27:27;;;;;;;;;;;13.50;60.80;;;;;;4975707;28;20369;-90
2022/01/24 11:29:54;;;;;;;;;;;13.60;60.30;;;;;;4990921;28;19928;-90
2022/01/24 11:32:26;;;;;;;;;;;13.60;59.70;;;;;;4982960;28;20001;-90
2022/01/24 11:34:52;;;;;;;;;;;13.50;59.60;;;;;;4988897;28;20357;-90
2022/01/24 11:37:36;;;;;;;;;;;13.40;59.60;;;;;;4999953;28;19922;-90
2022/01/24 11:40:05;;;;;;;;;;;13.40;59.70;;;;;;4990372;28;19918;-90
2022/01/24 11:42:33;;;;;;;;;;;13.40;59.80;;;;;;4984451;28;19961;-90
2022/01/24 11:45:04;;;;;;;;;;;13.30;60.30;;;;;;4989960;28;20016;-89
2022/01/24 11:47:31;;;;;;;;;;;13.40;60.70;;;;;;4982668;28;19921;-90
2022/01/24 11:49:57;;;;;;;;;;;13.50;60.90;;;;;;4979827;28;19922;-90
2022/01/24 11:52:29;;;;;;;;;;;13.50;60.90;;;;;;4990035;28;20401;-90
2022/01/24 11:55:06;;;;;;;;;;;13.60;60.30;;;;;;4978540;28;19921;-91
2022/01/24 11:57:37;;;;;;;;;;;13.50;59.90;;;;;;4991768;28;20384;-89
2022/01/24 12:00:03;;;;;;;;;;;13.50;59.50;;;;;;4979722;28;19975;-90
2022/01/24 12:02:30;;;;;;;;;;;13.50;59.40;;;;;;4972298;28;19918;-90
2022/01/24 12:04:56;;;;;;;;;;;13.50;59.50;;;;;;4981942;28;19918;-89
2022/01/24 12:07:24;;;;;;;;;;;13.50;60.40;;;;;;4980507;28;19921;-90
2022/01/24 12:10:10;;;;;;;;;;;13.50;60.30;;;;;;4992688;28;19928;-89
2022/01/24 12:12:42;;;;;;;;;;;13.50;60.30;;;;;;4991652;28;19922;-89
2022/01/24 12:15:12;;;;;;;;;;;13.50;60.70;;;;;;4978992;28;19914;-90
2022/01/24 12:17:44;;;;;;;;;;;13.60;59.90;;;;;;4994072;28;19921;-89
2022/01/24 12:20:34;;;;;;;;;;;13.60;59.70;;;;;;4988361;28;19922;-90
2022/01/24 12:23:25;;;;;;;;;;;13.50;59.80;;;;;;4984676;28;19918;-92
2022/01/24 12:25:54;;;;;;;;;;;13.50;60.50;;;;;;5007624;28;20391;-89
2022/01/24 12:28:30;;;;;;;;;;;13.60;60.10;;;;;;4973070;28;19917;-89
2022/01/24 12:31:08;;;;;;;;;;;13.60;60.40;;;;;;4994524;28;20312;-89
2022/01/24 12:33:36;;;;;;;;;;;13.60;59.80;;;;;;4986879;28;19964;-89
2022/01/24 12:36:06;;;;;;;;;;;13.60;60.40;;;;;;4987367;28;19917;-89
2022/01/24 12:38:42;;;;;;;;;;;13.60;59.60;;;;;;4986238;28;20358;-89
2022/01/24 12:41:37;;;;;;;;;;;13.50;59.80;;;;;;5002286;28;20400;-90
2022/01/24 12:46:29;;;;;;;;;;;13.50;59.00;;;;;;4992864;28;19917;-91
2022/01/24 12:48:56;;;;;;;;;;;13.50;59.40;;;;;;4987802;28;19932;-91
2022/01/24 12:51:25;;;;;;;;;;;13.50;59.30;;;;;;4998901;28;19914;-89
2022/01/24 12:53:51;;;;;;;;;;;13.50;59.70;;;;;;4980281;28;20190;-89
2022/01/24 12:56:18;;;;;;;;;;;13.50;59.90;;;;;;5012473;28;19921;-90
2022/01/24 12:58:49;;;;;;;;;;;13.50;59.60;;;;;;4980426;28;19922;-90
2022/01/24 13:01:16;;;;;;;;;;;13.50;60.40;;;;;;4984153;28;19956;-91
2022/01/24 13:03:49;;;;;;;;;;;13.60;60.90;;;;;;4991620;28;20516;-89
2022/01/24 13:06:17;;;;;;;;;;;13.70;61.20;;;;;;4991521;28;19921;-89
2022/01/24 13:08:53;;;;;;;;;;;13.70;61.10;;;;;;4982451;28;19914;-90
2022/01/24 13:11:19;;;;;;;;;;;13.80;61.20;;;;;;4980295;28;19922;-91
2022/01/24 13:14:15;;;;;;;;;;;13.80;60.80;;;;;;4993472;28;20016;-91
2022/01/24 13:22:16;;;;;;;;;;;13.60;59.80;;;;;;4989496;28;20030;-91
2022/01/24 13:25:02;;;;;;;;;;;13.60;59.90;;;;;;4993284;28;19918;-91
2022/01/24 13:27:48;;;;;;;;;;;13.60;59.50;;;;;;4995928;28;19949;-91
2022/01/24 13:30:15;;;;;;;;;;;13.50;58.80;;;;;;4973837;28;19922;-89
2022/01/24 13:32:49;;;;;;;;;;;13.50;58.90;;;;;;4987879;28;19922;-91
2022/01/24 13:35:18;;;;;;;;;;;13.40;58.80;;;;;;4983651;28;19914;-91
2022/01/24 13:37:44;;;;;;;;;;;13.40;60.00;;;;;;4983171;28;19914;-88
2022/01/24 13:40:10;;;;;;;;;;;13.40;60.70;;;;;;4979382;28;19914;-90
2022/01/24 13:42:36;;;;;;;;;;;13.40;60.80;;;;;;4986023;28;19926;-91
2022/01/24 13:45:03;;;;;;;;;;;13.50;61.00;;;;;;4987153;28;19917;-91
2022/01/24 13:47:28;;;;;;;;;;;13.60;60.30;;;;;;4997321;28;19914;-91
2022/01/24 13:49:54;;;;;;;;;;;13.60;59.50;;;;;;4996394;28;19925;-93
2022/01/24 13:52:21;;;;;;;;;;;13.50;59.00;;;;;;4990709;28;19972;-92
2022/01/24 13:54:46;;;;;;;;;;;13.40;59.30;;;;;;5022407;28;19987;-93
2022/01/24 13:57:21;;;;;;;;;;;13.40;58.90;;;;;;4978590;28;19918;-93
2022/01/24 13:59:46;;;;;;;;;;;13.30;59.10;;;;;;4985873;28;19926;-92
2022/01/24 14:02:19;;;;;;;;;;;13.30;59.10;;;;;;4980440;28;19963;-93
2022/01/24 14:04:46;;;;;;;;;;;13.30;59.10;;;;;;4981296;28;19918;-93
2022/01/24 14:07:13;;;;;;;;;;;13.30;59.70;;;;;;4989943;28;19964;-93
2022/01/24 14:09:39;;;;;;;;;;;13.30;59.00;;;;;;4984724;28;19941;-93
2022/01/24 14:12:05;;;;;;;;;;;13.20;59.30;;;;;;4981368;28;20362;-93
2022/01/24 14:14:41;;;;;;;;;;;13.20;59.40;;;;;;4993831;28;20000;-92
2022/01/24 14:17:21;;;;;;;;;;;13.10;58.40;;;;;;4979522;28;19921;-93
2022/01/24 14:19:53;;;;;;;;;;;13.00;58.50;;;;;;4976776;28;19920;-94
2022/01/24 14:22:18;;;;;;;;;;;13.00;58.10;;;;;;4987254;28;20367;-93
2022/01/24 14:25:10;;;;;;;;;;;12.90;59.10;;;;;;4993249;28;19914;-92
2022/01/24 14:27:46;;;;;;;;;;;12.90;59.90;;;;;;4976564;28;19933;-94
2022/01/24 14:30:19;;;;;;;;;;;13.00;60.70;;;;;;5014701;28;20460;-93
2022/01/24 14:33:17;;;;;;;;;;;13.10;60.90;;;;;;4979806;28;19928;-93
2022/01/24 14:35:51;;;;;;;;;;;13.10;60.90;;;;;;4956566;28;19914;-94
2022/01/24 14:38:26;;;;;;;;;;;13.20;61.10;;;;;;4972617;28;20029;-94
2022/01/24 14:40:54;;;;;;;;;;;13.20;60.90;;;;;;4976309;28;19973;-95
2022/01/24 14:46:07;;;;;;;;;;;13.30;61.00;;;;;;4989280;28;19967;-92
2022/01/24 14:48:51;;;;;;;;;;;13.30;60.60;;;;;;4985866;28;19916;-93
2022/01/24 14:51:19;;;;;;;;;;;13.30;60.30;;;;;;4970502;28;19917;-94
2022/01/24 14:53:45;;;;;;;;;;;13.20;59.60;;;;;;4972050;28;20018;-93
2022/01/24 14:56:14;;;;;;;;;;;13.10;59.90;;;;;;4973505;28;19914;-94
2022/01/24 14:58:43;;;;;;;;;;;13.10;60.50;;;;;;4982089;28;20021;-94
2022/01/24 15:01:09;;;;;;;;;;;13.10;59.60;;;;;;4975629;28;20284;-93
2022/01/24 15:03:35;;;;;;;;;;;13.00;59.40;;;;;;4994895;28;19916;-93
2022/01/24 15:06:01;;;;;;;;;;;12.90;59.20;;;;;;4968418;28;19910;-94
2022/01/24 15:08:28;;;;;;;;;;;12.80;59.30;;;;;;4983889;28;19937;-96
2022/01/24 15:10:53;;;;;;;;;;;12.80;59.70;;;;;;5055315;28;19918;-93
2022/01/24 15:13:22;;;;;;;;;;;12.80;59.50;;;;;;4979189;28;19917;-95
2022/01/24 15:15:57;;;;;;;;;;;12.70;58.90;;;;;;4959973;28;19929;-92
2022/01/24 15:26:23;;;;;;;;;;;12.50;59.90;;;;;;4986412;28;20339;-92
2022/01/24 15:28:48;;;;;;;;;;;12.50;59.70;;;;;;4975347;28;19922;-94
2022/01/24 15:31:14;;;;;;;;;;;12.50;59.80;;;;;;4977456;28;19949;-94
2022/01/24 15:33:39;;;;;;;;;;;12.50;59.50;;;;;;4994806;28;19926;-94
2022/01/24 15:36:05;;;;;;;;;;;12.50;59.70;;;;;;4978539;28;19926;-95
2022/01/24 15:38:30;;;;;;;;;;;12.50;60.30;;;;;;4983531;28;19929;-94
2022/01/24 15:40:56;;;;;;;;;;;12.50;60.20;;;;;;4988914;28;19917;-94
2022/01/24 15:48:47;;;;;;;;;;;12.50;60.30;;;;;;4923759;29;19934;-93
2022/01/24 15:51:14;;;;;;;;;;;12.40;59.80;;;;;;4977854;28;20365;-92
2022/01/24 15:53:40;;;;;;;;;;;12.40;59.90;;;;;;4976514;28;19945;-93
2022/01/24 15:58:49;;;;;;;;;;;12.40;60.20;;;;;;5022802;28;19918;-91
2022/01/24 16:01:15;;;;;;;;;;;12.40;60.30;;;;;;4990130;28;19920;-91
2022/01/24 16:03:40;;;;;;;;;;;12.40;60.10;;;;;;4981316;28;20067;-90
2022/01/24 16:06:06;;;;;;;;;;;12.40;60.30;;;;;;4979648;28;20016;-93
2022/01/24 16:08:31;;;;;;;;;;;12.40;60.50;;;;;;4992011;28;19962;-92
2022/01/24 16:10:57;;;;;;;;;;;12.40;60.60;;;;;;4974190;28;19925;-91
2022/01/24 16:13:23;;;;;;;;;;;12.40;60.50;;;;;;4982991;28;19933;-91
2022/01/24 16:15:49;;;;;;;;;;;12.40;60.60;;;;;;4975440;28;19914;-92
2022/01/24 16:18:17;;;;;;;;;;;12.40;60.70;;;;;;4992750;28;19922;-91
2022/01/24 16:21:01;;;;;;;;;;;12.40;60.80;;;;;;4977038;28;20383;-91